createdAt,value
2022-08-08T00:00:56.240Z,11.10
2022-08-08T00:00:56.445Z,10.90
2022-08-08T00:02:03.158Z,9.80
2022-08-08T00:02:34.363Z,10.20
2022-08-08T00:03:34.356Z,8.50
2022-08-08T00:04:34.410Z,10.80
2022-08-08T00:05:43.288Z,8.10
2022-08-08T00:06:35.536Z,10.70
2022-08-08T00:07:34.315Z,13.00
2022-08-08T00:08:34.299Z,7.40
2022-08-08T00:09:34.290Z,8.40
2022-08-08T00:10:34.277Z,9.90
2022-08-08T00:11:47.082Z,9.80
2022-08-08T00:12:34.568Z,10.30
2022-08-08T00:14:15.611Z,12.30
2022-08-08T00:14:48.402Z,9.50
2022-08-08T00:15:57.389Z,10.40
2022-08-08T00:16:34.213Z,8.80
2022-08-08T00:17:48.352Z,10.80
2022-08-08T00:18:35.214Z,12.10
2022-08-08T00:19:34.183Z,10.70
2022-08-08T00:20:34.168Z,9.80
2022-08-08T00:21:39.312Z,9.90
2022-08-08T00:22:34.145Z,10.10
2022-08-08T00:23:43.531Z,11.60
2022-08-08T00:24:34.135Z,9.70
2022-08-08T00:25:45.086Z,9.70
2022-08-08T00:26:35.125Z,10.70
2022-08-08T00:27:35.668Z,11.60
2022-08-08T00:28:36.820Z,10.90
2022-08-08T00:29:44.754Z,9.00
2022-08-08T00:30:34.055Z,13.50
2022-08-08T00:32:15.460Z,9.70
2022-08-08T00:32:36.533Z,9.30
2022-08-08T00:34:17.489Z,10.70
2022-08-08T00:34:34.940Z,9.90
2022-08-08T00:35:34.571Z,10.60
2022-08-08T00:36:35.144Z,10.10
2022-08-08T00:37:47.691Z,9.50
2022-08-08T00:38:44.269Z,9.00
2022-08-08T00:41:07.789Z,11.00
2022-08-08T00:41:09.607Z,11.60
2022-08-08T00:41:55.039Z,9.80
2022-08-08T00:42:36.938Z,10.50
2022-08-08T00:43:40.236Z,8.70
2022-08-08T00:44:33.898Z,9.70
2022-08-08T00:45:33.889Z,9.30
2022-08-08T00:46:56.983Z,10.80
2022-08-08T00:47:37.025Z,10.10
2022-08-08T00:48:34.881Z,11.60
2022-08-08T00:49:33.850Z,11.10
2022-08-08T00:50:33.835Z,10.20
2022-08-08T00:51:38.240Z,9.20
2022-08-08T00:52:40.102Z,9.70
2022-08-08T00:53:43.710Z,12.50
2022-08-08T00:54:34.816Z,9.10
2022-08-08T00:55:36.322Z,11.70
2022-08-08T00:56:33.767Z,8.50
2022-08-08T00:57:34.152Z,11.00
2022-08-08T00:58:33.745Z,10.50
2022-08-08T00:59:43.779Z,10.80
2022-08-08T01:00:37.893Z,11.60
2022-08-08T01:01:38.239Z,10.90
2022-08-08T01:03:57.904Z,9.50
2022-08-08T01:04:01.914Z,11.50
2022-08-08T01:04:33.678Z,11.60
2022-08-08T01:05:58.818Z,11.00
2022-08-08T01:06:34.684Z,10.00
2022-08-08T01:07:34.370Z,13.90
2022-08-08T01:08:33.635Z,11.40
2022-08-08T01:09:34.775Z,11.50
2022-08-08T01:10:33.612Z,9.10
2022-08-08T01:11:33.602Z,10.90
2022-08-08T01:12:33.920Z,10.20
2022-08-08T01:13:43.459Z,11.00
2022-08-08T01:14:53.290Z,8.50
2022-08-08T01:15:44.314Z,8.80
2022-08-08T01:16:33.546Z,12.10
2022-08-08T01:17:52.140Z,10.00
2022-08-08T01:18:53.565Z,11.10
2022-08-08T01:19:51.844Z,9.80
2022-08-08T01:20:34.530Z,14.30
2022-08-08T01:21:35.158Z,10.00
2022-08-08T01:22:35.321Z,12.50
2022-08-08T01:24:05.529Z,11.70
2022-08-08T01:24:34.482Z,10.80
2022-08-08T01:25:40.956Z,10.40
2022-08-08T01:26:34.459Z,12.90
2022-08-08T01:27:44.151Z,13.00
2022-08-08T01:28:33.415Z,10.50
2022-08-08T01:29:35.513Z,14.40
2022-08-08T01:30:33.394Z,12.20
2022-08-08T01:32:06.368Z,13.10
2022-08-08T01:32:33.750Z,12.00
2022-08-08T01:33:42.863Z,9.80
2022-08-08T01:34:33.986Z,12.00
2022-08-08T01:35:38.290Z,10.70
2022-08-08T01:36:33.326Z,11.10
2022-08-08T01:37:57.432Z,11.30
2022-08-08T01:38:34.332Z,11.00
2022-08-08T01:39:34.811Z,9.60
2022-08-08T01:40:33.281Z,9.80
2022-08-08T01:41:34.323Z,10.90
2022-08-08T01:42:36.197Z,11.50
2022-08-08T01:43:34.796Z,14.10
2022-08-08T01:44:33.239Z,9.80
2022-08-08T01:45:33.227Z,12.10
2022-08-08T01:46:33.225Z,12.30
2022-08-08T01:48:14.644Z,13.00
2022-08-08T01:48:33.191Z,12.70
2022-08-08T01:49:37.099Z,13.20
2022-08-08T01:50:34.831Z,12.20
2022-08-08T01:52:42.062Z,12.70
2022-08-08T01:53:06.631Z,11.80
2022-08-08T01:55:15.177Z,13.10
2022-08-08T01:55:45.150Z,13.90
2022-08-08T01:56:26.174Z,13.00
2022-08-08T01:56:34.327Z,12.70
2022-08-08T01:57:58.688Z,13.60
2022-08-08T01:58:38.585Z,11.70
2022-08-08T01:59:54.933Z,13.80
2022-08-08T02:00:34.084Z,11.80
2022-08-08T02:02:00.017Z,17.60
2022-08-08T02:02:41.654Z,14.00
2022-08-08T02:03:57.325Z,12.00
2022-08-08T02:04:33.015Z,11.30
2022-08-08T02:05:33.940Z,12.20
2022-08-08T02:06:36.824Z,12.20
2022-08-08T02:07:41.677Z,12.80
2022-08-08T02:08:34.222Z,13.40
2022-08-08T02:10:01.619Z,10.60
2022-08-08T02:10:37.240Z,11.30
2022-08-08T02:11:59.651Z,13.30
2022-08-08T02:12:33.954Z,14.90
2022-08-08T02:13:54.623Z,13.50
2022-08-08T02:14:32.904Z,14.20
2022-08-08T02:15:34.704Z,14.60
2022-08-08T02:16:32.880Z,12.50
2022-08-08T02:17:36.585Z,13.40
2022-08-08T02:18:32.859Z,14.70
2022-08-08T02:19:57.465Z,12.10
2022-08-08T02:21:00.774Z,11.40
2022-08-08T02:21:32.827Z,14.70
2022-08-08T02:22:33.134Z,11.60
2022-08-08T02:23:35.450Z,12.80
2022-08-08T02:24:32.793Z,15.60
2022-08-08T02:25:46.999Z,13.10
2022-08-08T02:26:32.772Z,12.90
2022-08-08T02:27:42.100Z,13.40
2022-08-08T02:28:34.959Z,11.40
2022-08-08T02:29:47.042Z,12.10
2022-08-08T02:30:33.751Z,13.80
2022-08-08T02:31:58.201Z,14.90
2022-08-08T02:32:34.162Z,12.70
2022-08-08T02:33:41.462Z,13.40
2022-08-08T02:34:34.637Z,20.60
2022-08-08T02:36:02.607Z,26.50
2022-08-08T02:36:33.687Z,22.40
2022-08-08T02:37:52.376Z,19.10
2022-08-08T02:38:32.640Z,14.60
2022-08-08T02:39:42.544Z,12.40
2022-08-08T02:40:33.735Z,11.60
2022-08-08T02:42:04.219Z,10.70
2022-08-08T02:42:36.152Z,11.30
2022-08-08T02:44:38.106Z,10.90
2022-08-08T02:44:42.313Z,12.60
2022-08-08T02:45:32.558Z,13.20
2022-08-08T02:46:32.555Z,12.60
2022-08-08T02:47:32.536Z,10.20
2022-08-08T02:48:32.529Z,13.00
2022-08-08T02:49:47.862Z,11.30
2022-08-08T02:50:32.508Z,10.20
2022-08-08T02:51:46.674Z,11.70
2022-08-08T02:52:50.896Z,10.90
2022-08-08T02:53:32.474Z,11.90
2022-08-08T02:54:34.500Z,11.40
2022-08-08T02:55:36.561Z,11.70
2022-08-08T02:56:32.438Z,11.90
2022-08-08T02:57:40.489Z,13.30
2022-08-08T02:58:32.416Z,10.80
2022-08-08T02:59:57.060Z,11.90
2022-08-08T03:00:32.403Z,11.30
2022-08-08T03:01:40.034Z,12.10
2022-08-08T03:02:33.660Z,12.60
2022-08-08T03:05:01.564Z,10.40
2022-08-08T03:05:04.992Z,11.30
2022-08-08T03:05:44.772Z,11.10
2022-08-08T03:06:34.995Z,10.50
2022-08-08T03:07:41.814Z,13.00
2022-08-08T03:08:32.306Z,13.30
2022-08-08T03:09:33.108Z,11.10
2022-08-08T03:10:33.685Z,11.50
2022-08-08T03:12:01.144Z,12.00
2022-08-08T03:12:36.738Z,12.20
2022-08-08T03:15:54.227Z,12.00
2022-08-08T03:15:58.357Z,13.50
2022-08-08T03:15:59.704Z,10.90
2022-08-08T03:16:36.055Z,10.40
2022-08-08T03:17:38.155Z,14.00
2022-08-08T03:18:32.197Z,11.30
2022-08-08T03:19:32.180Z,10.60
2022-08-08T03:20:32.173Z,12.90
2022-08-08T03:21:54.737Z,10.70
2022-08-08T03:22:38.176Z,10.00
2022-08-08T03:23:54.746Z,12.10
2022-08-08T03:24:32.126Z,12.00
2022-08-08T03:25:35.519Z,10.90
2022-08-08T03:26:42.019Z,12.80
2022-08-08T03:27:35.811Z,11.20
2022-08-08T03:28:32.085Z,12.90
2022-08-08T03:29:54.968Z,11.90
2022-08-08T03:30:34.583Z,10.40
2022-08-08T03:32:06.741Z,10.80
2022-08-08T03:32:32.376Z,10.60
2022-08-08T03:33:58.758Z,11.60
2022-08-08T03:34:33.041Z,11.40
2022-08-08T03:35:33.385Z,12.00
2022-08-08T03:36:31.993Z,10.60
2022-08-08T03:38:12.234Z,12.70
2022-08-08T03:38:55.862Z,12.60
2022-08-08T03:39:31.973Z,12.80
2022-08-08T03:40:32.237Z,10.50
2022-08-08T03:42:13.061Z,14.00
2022-08-08T03:42:32.950Z,12.30
2022-08-08T03:43:38.382Z,13.80
2022-08-08T03:44:32.939Z,12.60
2022-08-08T03:46:03.351Z,10.80
2022-08-08T03:46:32.956Z,11.00
2022-08-08T03:47:45.649Z,12.70
2022-08-08T03:49:08.989Z,10.20
2022-08-08T03:49:56.906Z,12.40
2022-08-08T03:50:32.863Z,13.20
2022-08-08T03:51:50.484Z,12.60
2022-08-08T03:52:32.715Z,13.10
2022-08-08T03:53:42.391Z,11.20
2022-08-08T03:54:41.309Z,10.10
2022-08-08T03:55:58.017Z,10.80
2022-08-08T03:56:32.792Z,11.30
2022-08-08T03:58:31.306Z,10.40
2022-08-08T03:58:38.175Z,13.80
2022-08-08T03:59:31.734Z,13.40
2022-08-08T04:00:31.749Z,10.90
2022-08-08T04:02:15.675Z,12.20
2022-08-08T04:02:36.901Z,12.80
2022-08-08T04:03:56.830Z,12.60
2022-08-08T04:04:31.724Z,11.90
2022-08-08T04:05:31.674Z,10.40
2022-08-08T04:06:31.677Z,12.60
2022-08-08T04:07:31.648Z,13.80
2022-08-08T04:08:33.645Z,12.90
2022-08-08T04:10:03.052Z,12.80
2022-08-08T04:10:32.108Z,15.10
2022-08-08T04:11:32.899Z,13.00
2022-08-08T04:12:32.615Z,11.50
2022-08-08T04:13:32.729Z,12.20
2022-08-08T04:14:34.710Z,10.70
2022-08-08T04:15:38.706Z,15.20
2022-08-08T04:16:40.803Z,12.00
2022-08-08T04:17:57.836Z,12.60
2022-08-08T04:18:31.824Z,12.60
2022-08-08T04:19:36.919Z,13.20
2022-08-08T04:20:31.501Z,14.90
2022-08-08T04:21:31.489Z,13.10
2022-08-08T04:22:32.678Z,14.40
2022-08-08T04:24:04.731Z,13.20
2022-08-08T04:24:31.829Z,13.60
2022-08-08T04:25:32.964Z,12.20
2022-08-08T04:26:40.222Z,12.30
2022-08-08T04:28:01.862Z,11.50
2022-08-08T04:28:37.258Z,14.40
2022-08-08T04:29:33.233Z,12.60
2022-08-08T04:30:39.913Z,13.70
2022-08-08T04:31:59.769Z,10.80
2022-08-08T04:32:34.007Z,11.90
2022-08-08T04:33:31.439Z,12.70
2022-08-08T04:34:43.054Z,14.90
2022-08-08T04:35:34.475Z,15.60
2022-08-08T04:36:32.351Z,12.10
2022-08-08T04:37:32.320Z,15.70
2022-08-08T04:38:31.306Z,11.90
2022-08-08T04:39:31.315Z,13.50
2022-08-08T04:40:32.642Z,12.20
2022-08-08T04:41:36.651Z,13.80
2022-08-08T04:42:31.471Z,14.60
2022-08-08T04:43:45.444Z,13.30
2022-08-08T04:44:33.840Z,12.80
2022-08-08T04:45:31.220Z,12.90
2022-08-08T04:46:31.243Z,13.20
2022-08-08T04:47:31.202Z,16.20
2022-08-08T04:48:31.188Z,13.00
2022-08-08T04:49:59.099Z,14.00
2022-08-08T04:50:38.476Z,14.40
2022-08-08T04:51:55.311Z,13.30
2022-08-08T04:52:33.707Z,14.60
2022-08-08T04:54:37.176Z,13.10
2022-08-08T04:54:39.072Z,12.60
2022-08-08T04:55:47.808Z,13.90
2022-08-08T04:56:31.116Z,13.00
2022-08-08T04:57:31.092Z,15.60
2022-08-08T04:58:31.087Z,14.40
2022-08-08T04:59:31.065Z,12.50
2022-08-08T05:00:32.084Z,16.00
2022-08-08T05:01:35.620Z,13.40
2022-08-08T05:02:32.186Z,14.80
2022-08-08T05:04:09.238Z,14.10
2022-08-08T05:04:31.011Z,13.80
2022-08-08T05:05:44.672Z,13.00
2022-08-08T05:06:32.018Z,11.70
2022-08-08T05:07:37.944Z,12.30
2022-08-08T05:08:30.983Z,13.70
2022-08-08T05:09:30.960Z,13.20
2022-08-08T05:10:30.948Z,11.70
2022-08-08T05:11:38.575Z,12.30
2022-08-08T05:12:32.316Z,15.70
2022-08-08T05:13:30.915Z,10.60
2022-08-08T05:14:30.909Z,10.10
2022-08-08T05:16:47.821Z,13.00
2022-08-08T05:16:52.129Z,11.70
2022-08-08T05:17:53.943Z,8.80
2022-08-08T05:18:31.882Z,10.10
2022-08-08T05:20:10.475Z,10.70
2022-08-08T05:20:30.875Z,8.60
2022-08-08T05:21:30.825Z,10.80
2022-08-08T05:22:32.285Z,8.50
2022-08-08T05:23:30.803Z,10.70
2022-08-08T05:24:31.061Z,9.10
2022-08-08T05:25:41.444Z,8.70
2022-08-08T05:26:30.771Z,9.50
2022-08-08T05:27:33.570Z,8.80
2022-08-08T05:28:56.604Z,8.70
2022-08-08T05:29:30.737Z,9.20
2022-08-08T05:30:30.728Z,8.50
2022-08-08T05:32:04.571Z,7.70
2022-08-08T05:32:36.136Z,9.70
2022-08-08T05:33:44.088Z,8.20
2022-08-08T05:34:30.682Z,9.40
2022-08-08T05:35:30.673Z,9.20
2022-08-08T05:36:30.661Z,8.00
2022-08-08T05:37:49.338Z,8.80
2022-08-08T05:38:32.518Z,10.50
2022-08-08T05:39:35.027Z,10.50
2022-08-08T05:40:30.620Z,10.50
2022-08-08T05:41:30.605Z,8.60
2022-08-08T05:42:30.975Z,10.70
2022-08-08T05:43:39.561Z,8.50
2022-08-08T05:44:31.599Z,10.50
2022-08-08T05:45:43.161Z,9.90
2022-08-08T05:46:31.579Z,9.60
2022-08-08T05:47:52.622Z,11.10
2022-08-08T05:48:31.317Z,11.90
2022-08-08T05:49:31.182Z,10.60
2022-08-08T05:50:30.520Z,11.40
2022-08-08T05:51:48.132Z,10.70
2022-08-08T05:52:33.906Z,10.10
2022-08-08T05:54:24.291Z,12.20
2022-08-08T05:54:49.803Z,10.20
2022-08-08T05:55:30.464Z,10.50
2022-08-08T05:56:31.476Z,12.40
2022-08-08T05:58:04.866Z,10.30
2022-08-08T05:58:32.617Z,13.10
2022-08-08T05:59:59.260Z,12.00
2022-08-08T06:00:30.406Z,12.20
2022-08-08T06:01:51.231Z,11.50
2022-08-08T06:02:30.386Z,11.90
2022-08-08T06:03:30.418Z,12.90
2022-08-08T06:04:30.372Z,11.70
2022-08-08T06:05:34.731Z,12.80
2022-08-08T06:06:32.504Z,9.40
2022-08-08T06:07:30.656Z,10.40
2022-08-08T06:08:34.840Z,7.70
2022-08-08T06:09:59.209Z,7.80
2022-08-08T06:10:30.341Z,10.30
2022-08-08T06:11:30.413Z,8.90
2022-08-08T06:12:31.556Z,9.10
2022-08-08T06:13:36.026Z,12.20
2022-08-08T06:14:30.251Z,10.00
2022-08-08T06:15:31.690Z,8.20
2022-08-08T06:16:31.507Z,8.10
2022-08-08T06:17:32.135Z,9.10
2022-08-08T06:18:30.357Z,11.50
2022-08-08T06:19:33.304Z,14.20
2022-08-08T06:20:30.184Z,8.50
2022-08-08T06:21:48.730Z,7.50
2022-08-08T06:22:33.658Z,9.10
2022-08-08T06:23:52.616Z,8.20
2022-08-08T06:24:31.116Z,8.90
2022-08-08T06:25:33.421Z,8.40
2022-08-08T06:26:41.422Z,9.60
2022-08-08T06:27:30.381Z,6.60
2022-08-08T06:28:30.127Z,7.60
2022-08-08T06:29:56.644Z,8.80
2022-08-08T06:30:30.133Z,7.90
2022-08-08T06:31:32.114Z,8.10
2022-08-08T06:32:30.063Z,9.40
2022-08-08T06:33:37.204Z,7.60
2022-08-08T06:34:31.066Z,8.40
2022-08-08T06:36:08.477Z,9.50
2022-08-08T06:36:30.011Z,6.40
2022-08-08T06:37:29.996Z,8.90
2022-08-08T06:38:30.007Z,7.60
2022-08-08T06:39:33.389Z,6.30
2022-08-08T06:40:30.161Z,7.00
2022-08-08T06:41:29.959Z,7.30
2022-08-08T06:42:29.948Z,6.30
2022-08-08T06:43:33.755Z,10.40
2022-08-08T06:44:30.321Z,6.90
2022-08-08T06:45:29.911Z,6.50
2022-08-08T06:46:30.291Z,6.30
2022-08-08T06:47:33.321Z,9.30
2022-08-08T06:48:29.882Z,7.80
2022-08-08T06:49:56.597Z,5.90
2022-08-08T06:50:32.380Z,7.10
2022-08-08T06:51:47.087Z,6.80
2022-08-08T06:52:30.860Z,5.10
2022-08-08T06:53:39.163Z,8.10
2022-08-08T06:54:29.812Z,7.00
2022-08-08T06:55:29.806Z,5.50
2022-08-08T06:56:29.789Z,6.20
2022-08-08T06:57:54.801Z,5.30
2022-08-08T06:58:30.508Z,9.00
2022-08-08T06:59:43.366Z,7.20
2022-08-08T07:00:30.843Z,8.10
2022-08-08T07:02:16.738Z,5.70
2022-08-08T07:02:32.066Z,7.40
2022-08-08T07:03:51.978Z,4.40
2022-08-08T07:04:38.692Z,5.20
2022-08-08T07:05:30.783Z,6.20
2022-08-08T07:06:30.709Z,7.00
2022-08-08T07:07:29.974Z,4.60
2022-08-08T07:08:29.661Z,6.60
2022-08-08T07:09:45.488Z,5.40
2022-08-08T07:10:30.665Z,7.40
2022-08-08T07:11:30.256Z,6.40
2022-08-08T07:12:30.638Z,7.40
2022-08-08T07:13:29.655Z,6.80
2022-08-08T07:14:29.696Z,4.60
2022-08-08T07:15:41.204Z,6.50
2022-08-08T07:16:30.639Z,6.30
2022-08-08T07:17:40.225Z,7.10
2022-08-08T07:18:37.179Z,6.30
2022-08-08T07:19:30.716Z,7.90
2022-08-08T07:20:29.539Z,5.60
2022-08-08T07:21:31.157Z,6.20
2022-08-08T07:22:29.509Z,8.80
2022-08-08T07:23:29.498Z,4.20
2022-08-08T07:24:29.489Z,6.00
2022-08-08T07:25:32.029Z,5.00
2022-08-08T07:26:32.880Z,6.20
2022-08-08T07:27:47.145Z,6.90
2022-08-08T07:28:31.647Z,5.50
2022-08-08T07:30:00.495Z,5.10
2022-08-08T07:30:29.423Z,7.90
2022-08-08T07:31:29.411Z,4.90
2022-08-08T07:32:29.404Z,6.10
2022-08-08T07:33:38.061Z,7.00
2022-08-08T07:34:31.808Z,7.20
2022-08-08T07:35:29.373Z,5.60
2022-08-08T07:36:30.494Z,5.50
2022-08-08T07:38:02.733Z,5.50
2022-08-08T07:38:30.368Z,5.40
2022-08-08T07:39:55.833Z,7.80
2022-08-08T07:40:32.737Z,5.20
2022-08-08T07:41:29.310Z,5.90
2022-08-08T07:42:33.286Z,5.80
2022-08-08T07:43:35.119Z,7.20
2022-08-08T07:44:37.723Z,5.10
2022-08-08T07:45:34.892Z,5.70
2022-08-08T07:46:30.903Z,6.00
2022-08-08T07:47:39.226Z,6.50
2022-08-08T07:48:29.613Z,5.50
2022-08-08T07:49:29.229Z,6.40
2022-08-08T07:50:29.214Z,6.30
2022-08-08T07:51:44.991Z,8.60
2022-08-08T07:52:30.220Z,3.90
2022-08-08T07:54:01.458Z,6.60
2022-08-08T07:54:29.174Z,7.30
2022-08-08T07:55:29.361Z,6.00
2022-08-08T07:56:36.151Z,7.50
2022-08-08T07:57:29.383Z,6.10
2022-08-08T07:58:30.162Z,4.40
2022-08-08T07:59:29.122Z,6.40
2022-08-08T08:00:30.137Z,7.00
2022-08-08T08:02:32.879Z,5.40
2022-08-08T08:02:36.577Z,6.20
2022-08-08T08:03:29.113Z,6.10
2022-08-08T08:04:29.071Z,7.80
2022-08-08T08:05:33.309Z,7.30
2022-08-08T08:06:29.049Z,5.80
2022-08-08T08:07:32.219Z,5.40
2022-08-08T08:08:29.032Z,6.50
2022-08-08T08:09:29.022Z,6.20
2022-08-08T08:10:30.798Z,5.90
2022-08-08T08:11:34.004Z,5.00
2022-08-08T08:12:35.554Z,6.50
2022-08-08T08:14:06.473Z,5.70
2022-08-08T08:14:29.016Z,6.80
2022-08-08T08:15:32.072Z,5.00
2022-08-08T08:16:28.943Z,5.80
2022-08-08T08:17:44.164Z,6.10
2022-08-08T08:18:32.261Z,8.10
2022-08-08T08:19:31.924Z,4.70
2022-08-08T08:20:30.366Z,6.10
2022-08-08T08:21:35.532Z,7.20
2022-08-08T08:22:33.877Z,5.80
2022-08-08T08:23:28.877Z,6.30
2022-08-08T08:24:30.654Z,6.50
2022-08-08T08:25:43.056Z,6.90
2022-08-08T08:26:28.885Z,5.30
2022-08-08T08:27:30.157Z,4.70
2022-08-08T08:28:28.825Z,6.30
2022-08-08T08:29:28.813Z,5.10
2022-08-08T08:30:28.805Z,7.30
2022-08-08T08:31:28.796Z,4.90
2022-08-08T08:32:35.790Z,6.30
2022-08-08T08:33:29.797Z,6.50
2022-08-08T08:34:32.504Z,6.40
2022-08-08T08:35:30.032Z,7.20
2022-08-08T08:36:28.765Z,4.40
2022-08-08T08:37:30.437Z,5.10
2022-08-08T08:38:28.726Z,7.20
2022-08-08T08:39:59.934Z,6.00
2022-08-08T08:40:29.773Z,6.20
2022-08-08T08:41:31.114Z,7.30
2022-08-08T08:42:31.541Z,5.80
2022-08-08T08:43:29.719Z,6.00
2022-08-08T08:44:29.053Z,4.80
2022-08-08T08:45:28.653Z,5.60
2022-08-08T08:46:28.644Z,7.00
2022-08-08T08:47:29.033Z,5.80
2022-08-08T08:48:28.670Z,4.00
2022-08-08T08:49:33.537Z,5.50
2022-08-08T08:50:33.151Z,5.70
2022-08-08T08:51:28.802Z,4.70
2022-08-08T08:52:28.803Z,5.10
2022-08-08T08:53:56.455Z,4.50
2022-08-08T08:54:28.570Z,6.10
2022-08-08T08:55:28.705Z,5.50
2022-08-08T08:56:29.688Z,6.20
2022-08-08T08:57:28.720Z,5.90
2022-08-08T08:58:28.537Z,5.40
2022-08-08T08:59:59.654Z,6.10
2022-08-08T09:00:44.586Z,6.10
2022-08-08T09:01:30.565Z,5.10
2022-08-08T09:02:28.487Z,4.40
2022-08-08T09:03:31.403Z,7.70
2022-08-08T09:04:32.119Z,5.50
2022-08-08T09:05:49.132Z,6.60
2022-08-08T09:06:33.542Z,4.40
2022-08-08T09:07:39.131Z,4.60
2022-08-08T09:08:29.585Z,5.40
2022-08-08T09:09:39.727Z,5.50
2022-08-08T09:10:29.434Z,5.60
2022-08-08T09:11:33.086Z,5.40
2022-08-08T09:12:28.388Z,5.20
2022-08-08T09:13:28.373Z,6.90
2022-08-08T09:14:28.369Z,4.50
2022-08-08T09:15:41.669Z,6.60
2022-08-08T09:16:28.916Z,4.90
2022-08-08T09:17:31.680Z,4.20
2022-08-08T09:18:29.375Z,6.30
2022-08-08T09:21:53.555Z,5.40
2022-08-08T09:22:01.476Z,5.70
2022-08-08T09:22:05.395Z,5.40
2022-08-08T09:22:29.317Z,3.80
2022-08-08T09:23:37.972Z,5.50
2022-08-08T09:24:29.283Z,4.70
2022-08-08T09:25:35.524Z,4.20
2022-08-08T09:26:32.345Z,4.70
2022-08-08T09:27:56.082Z,5.10
2022-08-08T09:28:37.244Z,4.60
2022-08-08T09:29:29.237Z,4.10
2022-08-08T09:30:28.382Z,6.10
2022-08-08T09:31:29.024Z,4.90
2022-08-08T09:32:31.851Z,6.70
2022-08-08T09:34:15.556Z,3.70
2022-08-08T09:34:32.640Z,4.50
2022-08-08T09:35:32.076Z,4.60
2022-08-08T09:36:28.144Z,4.40
2022-08-08T09:37:34.178Z,4.40
2022-08-08T09:38:29.216Z,5.40
2022-08-08T09:39:28.218Z,2.80
2022-08-08T09:40:43.188Z,5.20
2022-08-08T09:41:28.099Z,3.70
2022-08-08T09:42:28.086Z,5.60
2022-08-08T09:43:40.718Z,4.90
2022-08-08T09:44:29.714Z,5.50
2022-08-08T09:46:01.029Z,5.60
2022-08-08T09:46:30.945Z,6.20
2022-08-08T09:48:04.491Z,3.40
2022-08-08T09:48:35.289Z,6.20
2022-08-08T09:49:42.897Z,4.30
2022-08-08T09:50:28.478Z,5.90
2022-08-08T09:51:28.003Z,5.80
2022-08-08T09:52:55.535Z,7.60
2022-08-08T09:53:53.258Z,6.70
2022-08-08T09:54:37.018Z,5.60
2022-08-08T09:55:51.321Z,7.20
2022-08-08T09:56:28.065Z,6.40
2022-08-08T09:57:28.211Z,5.50
2022-08-08T09:58:40.353Z,5.60
2022-08-08T10:00:01.873Z,7.50
2022-08-08T10:00:37.772Z,4.20
2022-08-08T10:01:58.280Z,4.60
2022-08-08T10:02:28.720Z,6.60
2022-08-08T10:03:27.886Z,6.90
2022-08-08T10:04:38.694Z,7.20
2022-08-08T10:05:27.984Z,6.30
2022-08-08T10:06:29.716Z,10.00
2022-08-08T10:07:28.014Z,9.80
2022-08-08T10:08:30.598Z,7.50
2022-08-08T10:09:27.823Z,5.00
2022-08-08T10:10:30.339Z,4.90
2022-08-08T10:12:28.028Z,7.00
2022-08-08T10:12:37.882Z,6.00
2022-08-08T10:13:35.520Z,5.30
2022-08-08T10:14:38.385Z,4.50
2022-08-08T10:15:27.810Z,6.30
2022-08-08T10:16:27.771Z,4.90
2022-08-08T10:17:56.203Z,5.50
2022-08-08T10:18:28.964Z,4.90
2022-08-08T10:19:27.722Z,5.80
2022-08-08T10:20:27.965Z,6.40
2022-08-08T10:21:32.926Z,5.40
2022-08-08T10:22:27.866Z,5.20
2022-08-08T10:23:42.363Z,6.60
2022-08-08T10:24:29.640Z,6.60
2022-08-08T10:25:27.673Z,7.50
2022-08-08T10:26:30.868Z,5.50
2022-08-08T10:27:28.893Z,4.20
2022-08-08T10:28:27.630Z,5.10
2022-08-08T10:29:30.579Z,6.20
2022-08-08T10:30:57.321Z,5.10
2022-08-08T10:31:47.280Z,6.50
2022-08-08T10:32:28.681Z,3.90
2022-08-08T10:33:38.374Z,6.60
2022-08-08T10:34:28.704Z,4.10
2022-08-08T10:36:06.844Z,7.30
2022-08-08T10:36:30.915Z,6.20
2022-08-08T10:37:27.763Z,5.50
2022-08-08T10:38:27.548Z,5.70
2022-08-08T10:39:43.594Z,5.40
2022-08-08T10:40:32.239Z,9.40
2022-08-08T10:41:35.085Z,5.40
2022-08-08T10:42:27.666Z,6.20
2022-08-08T10:43:32.185Z,4.50
2022-08-08T10:44:27.461Z,6.10
2022-08-08T10:45:27.450Z,4.00
2022-08-08T10:46:30.219Z,6.80
2022-08-08T10:47:30.529Z,6.20
2022-08-08T10:48:28.521Z,6.30
2022-08-08T10:50:00.232Z,5.50
2022-08-08T10:50:28.773Z,4.00
2022-08-08T10:51:31.635Z,4.40
2022-08-08T10:52:28.172Z,4.90
2022-08-08T10:53:56.832Z,4.20
2022-08-08T10:54:27.361Z,3.50
2022-08-08T10:55:40.547Z,3.50
2022-08-08T10:56:32.525Z,6.40
2022-08-08T10:57:41.455Z,4.40
2022-08-08T10:58:27.336Z,3.30
2022-08-08T10:59:30.936Z,3.50
2022-08-08T11:00:27.299Z,6.10
2022-08-08T11:01:27.333Z,4.90
2022-08-08T11:02:27.350Z,5.60
2022-08-08T11:03:37.067Z,5.80
2022-08-08T11:04:29.792Z,4.60
2022-08-08T11:05:38.893Z,3.70
2022-08-08T11:06:27.275Z,5.90
2022-08-08T11:08:29.969Z,4.20
2022-08-08T11:08:30.896Z,5.00
2022-08-08T11:09:27.258Z,3.50
2022-08-08T11:10:28.733Z,2.70
2022-08-08T11:12:00.613Z,3.10
2022-08-08T11:12:28.644Z,3.90
2022-08-08T11:13:29.782Z,5.70
2022-08-08T11:14:27.820Z,4.40
2022-08-08T11:15:30.765Z,2.70
2022-08-08T11:16:33.135Z,4.60
2022-08-08T11:17:58.755Z,5.00
2022-08-08T11:18:30.063Z,5.00
2022-08-08T11:19:27.116Z,5.20
2022-08-08T11:20:28.185Z,3.30
2022-08-08T11:21:34.925Z,5.90
2022-08-08T11:22:28.349Z,5.10
2022-08-08T11:23:31.278Z,4.00
2022-08-08T11:24:27.064Z,3.30
2022-08-08T11:25:46.231Z,3.80
2022-08-08T11:26:28.161Z,2.80
2022-08-08T11:27:29.175Z,3.50
2022-08-08T11:28:30.560Z,2.70
2022-08-08T11:29:41.933Z,4.20
2022-08-08T11:30:28.038Z,3.90
2022-08-08T11:31:27.006Z,3.20
2022-08-08T11:32:29.385Z,4.70
2022-08-08T11:33:51.534Z,3.80
2022-08-08T11:34:34.587Z,4.00
2022-08-08T11:35:38.615Z,5.20
2022-08-08T11:36:29.177Z,4.00
2022-08-08T11:38:07.411Z,4.30
2022-08-08T11:38:36.038Z,3.90
2022-08-08T11:39:26.979Z,4.70
2022-08-08T11:40:27.926Z,3.80
2022-08-08T11:41:27.896Z,4.90
2022-08-08T11:42:30.844Z,2.90
2022-08-08T11:43:38.474Z,3.50
2022-08-08T11:44:29.009Z,3.50
2022-08-08T11:45:26.858Z,6.40
2022-08-08T11:46:28.128Z,4.00
2022-08-08T11:47:39.359Z,5.00
2022-08-08T11:48:27.702Z,4.60
2022-08-08T11:49:27.767Z,4.50
2022-08-08T11:50:26.810Z,4.60
2022-08-08T11:51:39.256Z,3.60
2022-08-08T11:52:31.738Z,4.30
2022-08-08T11:53:26.781Z,3.30
2022-08-08T11:54:33.171Z,4.00
2022-08-08T11:55:26.798Z,5.90
2022-08-08T11:56:26.756Z,3.60
2022-08-08T11:57:27.667Z,4.80
2022-08-08T11:58:26.735Z,4.50
2022-08-08T11:59:57.715Z,3.50
2022-08-08T12:00:27.765Z,4.70
2022-08-08T12:01:26.721Z,4.00
2022-08-08T12:02:40.184Z,3.40
2022-08-08T12:03:30.632Z,4.50
2022-08-08T12:04:26.676Z,5.00
2022-08-08T12:05:26.666Z,6.00
2022-08-08T12:06:26.690Z,4.80
2022-08-08T12:07:26.673Z,5.00
2022-08-08T12:08:26.634Z,4.30
2022-08-08T12:09:26.620Z,3.80
2022-08-08T12:10:26.614Z,4.10
2022-08-08T12:11:28.641Z,3.20
2022-08-08T12:12:28.794Z,4.90
2022-08-08T12:13:38.001Z,4.20
2022-08-08T12:14:29.012Z,3.00
2022-08-08T12:15:26.560Z,5.50
2022-08-08T12:16:28.195Z,3.90
2022-08-08T12:17:27.575Z,4.80
2022-08-08T12:18:26.549Z,6.70
2022-08-08T12:19:37.564Z,4.10
2022-08-08T12:20:26.513Z,3.50
2022-08-08T12:21:59.800Z,5.60
2022-08-08T12:22:32.737Z,4.00
2022-08-08T12:23:40.409Z,5.60
2022-08-08T12:24:27.598Z,4.60
2022-08-08T12:25:29.717Z,4.30
2022-08-08T12:26:28.105Z,5.00
2022-08-08T12:27:35.622Z,4.80
2022-08-08T12:28:26.644Z,4.80
2022-08-08T12:29:40.345Z,8.50
2022-08-08T12:30:27.434Z,6.50
2022-08-08T12:31:26.424Z,5.60
2022-08-08T12:32:26.502Z,4.10
2022-08-08T12:33:37.860Z,4.80
2022-08-08T12:34:36.238Z,3.70
2022-08-08T12:35:26.360Z,4.80
2022-08-08T12:36:28.461Z,5.30
2022-08-08T12:37:40.674Z,5.10
2022-08-08T12:38:30.385Z,6.90
2022-08-08T12:39:56.444Z,4.60
2022-08-08T12:40:27.471Z,3.10
2022-08-08T12:41:34.951Z,5.70
2022-08-08T12:42:27.328Z,4.90
2022-08-08T12:43:27.315Z,3.60
2022-08-08T12:44:32.281Z,5.80
2022-08-08T12:45:58.516Z,6.60
2022-08-08T12:46:28.694Z,6.70
2022-08-08T12:47:57.896Z,5.30
2022-08-08T12:48:37.610Z,5.50
2022-08-08T12:49:43.501Z,6.30
2022-08-08T12:50:27.229Z,3.80
2022-08-08T12:51:26.195Z,5.90
2022-08-08T12:52:28.552Z,4.20
2022-08-08T12:53:28.426Z,5.80
2022-08-08T12:54:26.213Z,8.10
2022-08-08T12:55:35.563Z,5.20
2022-08-08T12:56:27.164Z,6.60
2022-08-08T12:57:26.407Z,5.80
2022-08-08T12:58:26.121Z,2.80
2022-08-08T12:59:27.330Z,3.60
2022-08-08T13:00:26.449Z,5.20
2022-08-08T13:01:34.999Z,3.60
2022-08-08T13:02:28.301Z,5.40
2022-08-08T13:03:26.068Z,4.10
2022-08-08T13:04:26.172Z,3.10
2022-08-08T13:06:03.393Z,4.10
2022-08-08T13:06:27.385Z,5.30